createdAt,value
2022-10-18T05:37:58.554Z,56.38
2022-10-18T05:43:19.534Z,30.98
2022-10-18T05:48:40.536Z,49.22
2022-10-18T05:54:01.407Z,28.27
2022-10-18T05:59:22.354Z,23.65
2022-10-18T06:04:43.107Z,12.48
2022-10-18T06:10:04.228Z,12.80
2022-10-18T06:15:24.783Z,14.00
2022-10-18T06:20:45.830Z,12.48
2022-10-18T06:26:09.860Z,10.82
2022-10-18T06:31:30.957Z,9.52
2022-10-18T06:36:55.019Z,11.57
2022-10-18T06:42:21.825Z,10.75
2022-10-18T06:47:43.469Z,12.20
2022-10-18T06:53:06.254Z,11.38
2022-10-18T06:58:27.516Z,10.52
2022-10-18T07:03:49.276Z,10.90
2022-10-18T07:09:10.658Z,8.68
2022-10-18T07:14:31.436Z,11.82
2022-10-18T07:19:52.179Z,12.10
2022-10-18T07:25:12.997Z,9.65
2022-10-18T07:30:34.175Z,10.60
2022-10-18T07:35:55.234Z,9.30
2022-10-18T07:41:16.240Z,11.15
2022-10-18T07:46:37.105Z,12.25
2022-10-18T07:51:57.955Z,8.38
2022-10-18T07:57:18.889Z,10.35
2022-10-18T08:02:39.621Z,18.83
2022-10-18T08:08:03.084Z,10.48
2022-10-18T08:13:26.871Z,10.00
2022-10-18T08:18:47.721Z,9.32
2022-10-18T08:24:08.610Z,11.43
2022-10-18T08:29:31.867Z,11.90
2022-10-18T08:34:53.253Z,14.35
2022-10-18T08:40:14.909Z,9.52
2022-10-18T08:45:43.157Z,13.15
2022-10-18T08:51:06.873Z,12.63
2022-10-18T08:56:27.816Z,16.08
2022-10-18T09:02:06.881Z,12.45
2022-10-18T09:07:51.892Z,10.93
2022-10-18T09:13:28.115Z,9.38
2022-10-18T09:18:58.628Z,45.08
2022-10-18T09:24:25.557Z,33.80
2022-10-18T09:29:49.376Z,23.20
2022-10-18T09:35:31.725Z,23.92
2022-10-18T09:40:57.331Z,17.83
2022-10-18T09:46:21.896Z,15.40
2022-10-18T09:51:44.736Z,10.50
2022-10-18T09:57:26.661Z,14.05
2022-10-18T10:02:47.337Z,21.60
2022-10-18T10:08:08.404Z,11.30
2022-10-18T10:13:29.450Z,20.05
2022-10-18T10:19:20.214Z,14.98
2022-10-18T10:24:50.784Z,21.38
2022-10-18T10:30:34.932Z,26.07
2022-10-18T10:36:01.777Z,33.17
2022-10-18T10:41:24.178Z,24.05
2022-10-18T10:46:48.099Z,19.17
2022-10-18T10:52:33.955Z,16.25
2022-10-18T10:57:56.495Z,12.95
2022-10-18T11:03:29.544Z,16.70
2022-10-18T11:08:53.181Z,46.33
2022-10-18T11:14:27.054Z,17.80
2022-10-18T11:20:07.065Z,8.95
2022-10-18T11:26:06.615Z,8.50
2022-10-18T11:31:48.593Z,8.23
2022-10-18T11:37:31.127Z,8.45
2022-10-18T11:42:59.051Z,6.57
2022-10-18T11:48:56.948Z,7.20
2022-10-18T11:54:47.398Z,6.03
2022-10-18T12:00:23.861Z,6.40
2022-10-18T12:05:47.259Z,7.05
2022-10-18T12:11:41.037Z,5.93
2022-10-18T12:17:40.791Z,9.45
2022-10-18T12:23:01.057Z,7.57
2022-10-18T12:28:49.854Z,5.93
2022-10-18T12:34:22.890Z,16.80
2022-10-18T12:40:09.365Z,6.60
2022-10-18T12:45:35.341Z,7.00
2022-10-18T12:51:20.909Z,8.13
2022-10-18T12:56:44.048Z,6.10
2022-10-18T13:02:05.132Z,10.48
2022-10-18T13:13:38.591Z,10.38
2022-10-18T13:19:28.682Z,10.50
2022-10-18T13:25:11.352Z,9.90
2022-10-18T13:30:47.923Z,21.40
2022-10-18T13:36:22.738Z,11.75
2022-10-18T13:41:47.477Z,15.35
2022-10-18T13:47:14.176Z,10.15
2022-10-18T13:53:38.512Z,12.70
2022-10-18T13:59:26.860Z,11.05
2022-10-18T14:05:23.107Z,12.52
2022-10-18T14:11:02.240Z,13.50
2022-10-18T14:16:58.143Z,14.93
2022-10-18T14:22:28.556Z,14.57
2022-10-18T14:28:02.362Z,12.77
2022-10-18T14:33:37.033Z,14.63
2022-10-18T14:39:04.505Z,15.88
2022-10-18T14:44:31.030Z,16.58
2022-10-18T14:49:57.657Z,12.45
2022-10-18T14:55:23.867Z,14.18
2022-10-18T15:00:48.482Z,15.05
2022-10-18T15:06:18.914Z,14.48
2022-10-18T15:11:41.551Z,16.77
2022-10-18T15:17:21.683Z,19.05
2022-10-18T15:23:01.431Z,15.38
2022-10-18T15:28:32.891Z,13.85
2022-10-18T15:34:22.453Z,14.15
2022-10-18T15:39:43.373Z,15.48
2022-10-18T15:45:22.306Z,13.38
2022-10-18T15:50:44.512Z,16.70
2022-10-18T15:56:24.111Z,12.75
2022-10-18T16:01:45.355Z,16.02
2022-10-18T16:07:06.123Z,18.98
2022-10-18T16:12:27.055Z,16.08
2022-10-18T16:17:48.622Z,17.40
2022-10-18T16:23:17.351Z,16.63
2022-10-18T16:28:39.127Z,19.95
2022-10-18T16:34:01.913Z,19.58
2022-10-18T16:39:23.785Z,12.88
2022-10-18T16:44:45.468Z,16.52
2022-10-18T16:50:08.631Z,13.77
2022-10-18T16:55:30.587Z,17.20
2022-10-18T17:00:52.033Z,16.55
2022-10-18T17:06:17.911Z,14.07
2022-10-18T17:11:38.824Z,13.73
2022-10-18T17:16:59.736Z,18.63
2022-10-18T17:27:42.302Z,16.60
2022-10-18T17:33:03.320Z,16.58
2022-10-18T17:38:24.154Z,15.98
2022-10-18T17:49:05.883Z,10.93
2022-10-18T17:54:26.903Z,13.85
2022-10-18T17:59:48.880Z,17.08
2022-10-18T18:05:09.762Z,17.08
2022-10-18T18:10:32.020Z,13.95
2022-10-18T18:15:52.960Z,10.48
2022-10-18T18:21:14.127Z,16.73
2022-10-18T18:26:35.959Z,14.52
2022-10-18T18:31:57.221Z,15.25
2022-10-18T18:37:18.397Z,12.80
2022-10-18T18:42:39.441Z,14.93
2022-10-18T18:53:21.083Z,11.80
2022-10-18T18:58:44.135Z,19.42
2022-10-18T19:04:07.028Z,12.30
2022-10-18T19:09:28.060Z,12.30
2022-10-18T19:14:49.142Z,14.48
2022-10-18T19:20:12.764Z,12.85
2022-10-18T19:25:33.667Z,13.25
2022-10-18T19:36:16.873Z,11.32
2022-10-18T19:41:37.823Z,13.70
2022-10-18T19:46:59.440Z,10.70
2022-10-18T19:52:20.368Z,10.82
2022-10-18T19:57:41.498Z,9.20
2022-10-18T20:03:02.424Z,14.75
2022-10-18T20:08:24.287Z,13.50
2022-10-18T20:13:45.189Z,14.27
2022-10-18T20:19:07.743Z,10.05
2022-10-18T20:24:28.716Z,9.48
2022-10-18T20:29:49.671Z,15.20
2022-10-18T20:35:10.804Z,16.90
2022-10-18T20:40:32.556Z,12.63
2022-10-18T20:45:58.159Z,15.48
2022-10-18T20:51:20.168Z,13.10
2022-10-18T20:56:41.091Z,10.95
2022-10-18T21:02:02.081Z,12.70
2022-10-18T21:07:22.929Z,15.95
2022-10-18T21:12:43.838Z,11.18
2022-10-18T21:18:04.762Z,12.32
2022-10-18T21:28:46.806Z,8.77
2022-10-18T21:34:13.526Z,8.40
2022-10-18T21:39:35.158Z,13.93
2022-10-18T21:44:56.092Z,9.63
2022-10-18T21:55:37.667Z,10.95
